• Join FlightAware (Why Join?)
  • Login
  • US Flag 
06:57AM EDT


 

Airport Tracker/Info


-or-


 

Live Flight TrackerFlight Track Log ✈ SKW6446 ✈ 28-Apr-2013 ✈ KSMX - KLAX

Flight Track Log - Related Links

Times and Time Zones

All times are in EDT time to prevent confusion due to time zone crossing. See the SKW6446 flight status page for this flight to view local times or setup timezone preferences in your user account.

Time Position Orientation Groundspeed Altitude Reporting Facility
EDT Latitude Longitude Course Direction KTS MPH feet Rate Location/Type
08:57PM 34.9047 -120.4606 116° Southeast 127 146 1,000  Level Los Angeles Center
08:57PM 34.9114 -120.4717 306° West 145 167 1,500 1,560 Climbing Los Angeles Center
08:58PM 34.8975 -120.5031 242° Southwest 185 213 2,800 1,740 Climbing Los Angeles Center
08:59PM 34.8475 -120.4714 153° Southeast 204 235 4,800 1,920 Climbing Los Angeles Center
09:00PM 34.8178 -120.4161 123° Southeast 201 231 6,800 1,860 Climbing Los Angeles Center
09:01PM 34.7466 -120.1215 132° Southeast  Level Estimated
09:01PM 34.7844 -120.3436 119° Southeast 202 232 8,700  Level Los Angeles Center
09:02PM 34.7081 -120.0376 116° Southeast  Level Estimated
09:02PM 34.7558 -120.2803 119° Southeast 209 241 10,400  Level Los Angeles Center
09:03PM 34.7242 -120.2172 121° Southeast 213 245 12,000 1,380 Climbing Los Angeles Center
09:04PM 34.6939 -120.1522 120° Southeast 217 250 13,300 1,200 Climbing Los Angeles Center
09:05PM 34.6644 -120.0850 118° Southeast 224 258 14,600 840 Climbing Los Angeles Center
09:06PM 34.6214 -120.0047 123° Southeast 236 272 15,100 240 Climbing Los Angeles Center
09:07PM 34.5850 -119.9239 119° Southeast 262 302 15,100  Level Los Angeles Center
09:08PM 34.5444 -119.8461 122° Southeast 270 311 15,100  Level Los Angeles Center
09:09PM 34.5056 -119.7667 121° Southeast 274 315 15,100  Level Los Angeles Center
09:11PM 34.4639 -119.6881 123° Southeast 279 321 15,100  Level Los Angeles Center
09:12PM 34.4211 -119.6117 124° Southeast 276 318 15,100  Level Los Angeles Center
09:13PM 34.3781 -119.5344 124° Southeast 277 319 15,100  Level Los Angeles Center
09:14PM 34.3278 -119.4400 123° Southeast 280 322 15,100 -240 Level Los Angeles Center
09:15PM 34.2861 -119.3608 122° Southeast 279 321 14,700 -780 Descending Los Angeles Center
09:16PM 34.2456 -119.2878 124° Southeast 262 302 13,600 -1,020 Descending Los Angeles Center
09:17PM 34.2067 -119.2175 124° Southeast 250 288 12,600 -1,080 Descending Los Angeles Center
09:18PM 34.1694 -119.1492 123° Southeast 244 281 11,400 -780 Descending Los Angeles Center
09:19PM 34.1369 -119.0728 117° Southeast 257 296 11,000 -240 Descending Los Angeles Center
09:20PM 34.1186 -118.9667 102° East 269 310 11,000 -300 Level Los Angeles Center
09:21PM 34.0997 -118.8758 104° East 279 321 10,500 -540 Descending Los Angeles Center
09:22PM 34.0783 -118.7758 104° East 292 336 10,000 -300 Descending Los Angeles Center
09:23PM 34.0572 -118.6786 105° East 278 320 10,000 -300 Level Los Angeles Center
09:24PM 34.0375 -118.5894 105° East 275 316 9,400 -780 Descending Los Angeles Center
09:25PM 34.0186 -118.5042 105° East 263 303 8,400 -1,260 Descending Los Angeles Center
09:26PM 34.0175 -118.4131 91° East 260 299 6,900 -1,440 Descending Los Angeles Center
09:27PM 34.0389 -118.3094 76° East 264 304 5,200 -1,500 Descending Los Angeles Center
09:28PM 34.0425 -118.2236 87° East 262 302 3,600 -1,140 Descending Los Angeles Center
09:29PM 34.0392 -118.1397 93° East 253 291 2,900 -660 Descending Los Angeles Center
09:30PM 34.0167 -118.1000 124° Southeast 244 281 2,600 -300 Descending Southern California TRACON
09:31PM 33.9833 -118.1167 203° Southwest 209 241 2,500 -300 Descending Southern California TRACON
09:31PM 33.9775 -118.1450 256° West 202 232 2,200 -180 Descending Los Angeles Center
09:32PM 33.9719 -118.2147 265° West 178 205 2,200  Level Los Angeles Center
09:33PM 33.9661 -118.2725 263° West 175 201 2,200  Level Los Angeles Center